createdAt,value
2023-12-17T00:02:03.457Z,101916.47
2023-12-17T00:04:32.238Z,101912.16
2023-12-17T00:07:01.651Z,101814.38
2023-12-17T00:09:30.569Z,101879.53
2023-12-17T00:12:00.741Z,101925.88
2023-12-17T00:14:28.959Z,101920.75
2023-12-17T00:16:57.652Z,101901.03
2023-12-17T00:19:26.309Z,101910.44
2023-12-17T00:21:54.792Z,101870.94
2023-12-17T00:24:23.649Z,101942.19
2023-12-17T00:26:54.013Z,101920.72
2023-12-17T00:29:25.670Z,101945.63
2023-12-17T00:32:00.521Z,101943.91
2023-12-17T00:34:30.463Z,101937.00
2023-12-17T00:36:59.925Z,101882.91
2023-12-17T00:39:28.833Z,101924.09
2023-12-17T00:41:57.966Z,101932.66
2023-12-17T00:44:28.561Z,101936.06
2023-12-17T00:46:57.518Z,101843.31
2023-12-17T00:49:27.599Z,101910.28
2023-12-17T00:51:57.448Z,101952.34
2023-12-17T00:54:26.270Z,101922.25
2023-12-17T00:56:56.301Z,101954.00
2023-12-17T00:59:30.158Z,101915.31
2023-12-17T01:02:00.488Z,101848.38
2023-12-17T01:04:34.013Z,101908.56
2023-12-17T01:07:03.585Z,101861.28
2023-12-17T01:09:34.935Z,101966.94
2023-12-17T01:12:09.743Z,101965.19
2023-12-17T01:14:41.130Z,101920.47
2023-12-17T01:17:11.949Z,101941.03
2023-12-17T01:19:44.619Z,101965.19
2023-12-17T01:22:14.652Z,101840.69
2023-12-17T01:24:44.770Z,101968.63
2023-12-17T01:27:13.355Z,101965.13
2023-12-17T01:29:46.760Z,101967.66
2023-12-17T01:32:19.779Z,101974.53
2023-12-17T01:34:50.564Z,101892.94
2023-12-17T01:37:20.783Z,101855.97
2023-12-17T01:39:51.112Z,101897.00
2023-12-17T01:42:20.600Z,101981.16
2023-12-17T01:44:51.876Z,101974.34
2023-12-17T01:47:22.844Z,101982.88
2023-12-17T01:49:52.427Z,101983.66
2023-12-17T01:52:21.804Z,101980.22
2023-12-17T01:54:51.110Z,101977.59
2023-12-17T01:57:20.328Z,101980.16
2023-12-17T01:59:52.000Z,101969.00
2023-12-17T02:02:21.462Z,101974.97
2023-12-17T02:04:50.651Z,101939.72
2023-12-17T02:07:19.868Z,101988.69
2023-12-17T02:09:49.660Z,101987.78
2023-12-17T02:12:26.463Z,101951.69
2023-12-17T02:14:56.383Z,101988.75
2023-12-17T02:17:29.311Z,101995.56
2023-12-17T02:19:58.041Z,101993.81
2023-12-17T02:22:28.967Z,101992.06
2023-12-17T02:25:02.980Z,101960.16
2023-12-17T02:27:39.176Z,102001.38
2023-12-17T02:30:12.767Z,101990.38
2023-12-17T02:32:44.479Z,101971.53
2023-12-17T02:35:14.631Z,101980.09
2023-12-17T02:37:44.941Z,102000.56
2023-12-17T02:40:15.981Z,101995.47
2023-12-17T02:42:52.299Z,101976.47
2023-12-17T02:45:23.923Z,101987.88
2023-12-17T02:47:56.161Z,101943.00
2023-12-17T02:50:32.339Z,101967.06
2023-12-17T02:53:03.081Z,101966.16
2023-12-17T02:55:36.862Z,101961.84
2023-12-17T02:58:08.323Z,101992.06
2023-12-17T03:00:37.650Z,101980.91
2023-12-17T03:03:07.411Z,101965.28
2023-12-17T03:05:37.890Z,102001.38
2023-12-17T03:08:08.290Z,101976.59
2023-12-17T03:10:43.938Z,101973.03
2023-12-17T03:13:13.952Z,101995.41
2023-12-17T03:15:47.017Z,101990.31
2023-12-17T03:18:17.396Z,101923.16
2023-12-17T03:20:47.293Z,101954.22
2023-12-17T03:23:17.318Z,101990.28
2023-12-17T03:25:50.790Z,101969.69
2023-12-17T03:28:20.295Z,101966.28
2023-12-17T03:30:51.399Z,101975.63
2023-12-17T03:33:20.392Z,101992.13
2023-12-17T03:35:50.466Z,101950.00
2023-12-17T03:38:20.461Z,102001.59
2023-12-17T03:40:54.373Z,101943.09
2023-12-17T03:43:24.488Z,101949.16
2023-12-17T03:45:53.586Z,101986.03
2023-12-17T03:48:23.713Z,101998.88
2023-12-17T03:50:53.832Z,101992.06
2023-12-17T03:53:22.909Z,101949.88
2023-12-17T03:55:54.586Z,101994.50
2023-12-17T03:58:29.202Z,101993.63
2023-12-17T04:00:57.989Z,101996.28
2023-12-17T04:03:29.098Z,101968.78
2023-12-17T04:06:00.826Z,101946.47
2023-12-17T04:08:29.953Z,101918.00
2023-12-17T04:11:00.100Z,101978.13
2023-12-17T04:13:29.043Z,102007.28
2023-12-17T04:15:57.797Z,101984.00
2023-12-17T04:18:26.062Z,101999.47
2023-12-17T04:20:56.552Z,101961.63
2023-12-17T04:23:24.865Z,101978.09
2023-12-17T04:25:53.859Z,102003.81
2023-12-17T04:28:25.095Z,102003.81
2023-12-17T04:30:54.093Z,101970.31
2023-12-17T04:33:24.307Z,101966.88
2023-12-17T04:35:53.318Z,101954.81
2023-12-17T04:38:24.636Z,102008.88
2023-12-17T04:41:01.243Z,102014.09
2023-12-17T04:43:32.886Z,102005.66
2023-12-17T04:46:01.876Z,102012.66
2023-12-17T04:48:40.615Z,102024.44
2023-12-17T04:51:09.914Z,102019.97
2023-12-17T04:53:46.774Z,102023.50
2023-12-17T04:56:18.233Z,102021.78
2023-12-17T04:58:50.893Z,102004.59
2023-12-17T05:01:21.036Z,102019.22
2023-12-17T05:03:51.328Z,102014.09
2023-12-17T05:06:20.560Z,102022.69
2023-12-17T05:08:48.834Z,101971.03
2023-12-17T05:11:17.388Z,101987.34
2023-12-17T05:13:46.189Z,102018.19
2023-12-17T05:16:17.324Z,102019.84
2023-12-17T05:18:46.320Z,102016.50
2023-12-17T05:21:14.499Z,102019.09
2023-12-17T05:23:42.572Z,102017.34
2023-12-17T05:26:11.254Z,101980.28
2023-12-17T05:28:42.534Z,102022.41
2023-12-17T05:31:12.047Z,101994.09
2023-12-17T05:33:42.718Z,102019.09
2023-12-17T05:36:14.126Z,101997.53
2023-12-17T05:38:47.489Z,102028.44
2023-12-17T05:41:18.218Z,101917.53
2023-12-17T05:43:47.214Z,101973.41
2023-12-17T05:46:16.491Z,102039.59
2023-12-17T05:48:46.088Z,102045.59
2023-12-17T05:51:14.408Z,102049.94
2023-12-17T05:53:46.949Z,102057.59
2023-12-17T05:56:17.489Z,102020.53
2023-12-17T05:58:48.835Z,102065.28
2023-12-17T06:01:20.949Z,102066.16
2023-12-17T06:03:51.558Z,102069.84
2023-12-17T06:06:20.286Z,102071.53
2023-12-17T06:08:48.960Z,102062.97
2023-12-17T06:11:18.099Z,102067.34
2023-12-17T06:13:46.577Z,102069.88
2023-12-17T06:16:15.400Z,102044.13
2023-12-17T06:18:44.273Z,102069.06
2023-12-17T06:21:22.856Z,102026.13
2023-12-17T06:23:52.193Z,101953.09
2023-12-17T06:26:21.464Z,101990.16
2023-12-17T06:28:49.965Z,102065.03
2023-12-17T06:31:18.985Z,102022.88
2023-12-17T06:33:48.008Z,102059.91
2023-12-17T06:36:18.322Z,102023.91
2023-12-17T06:38:46.379Z,102042.94
2023-12-17T06:41:14.391Z,102050.75
2023-12-17T06:43:42.877Z,102057.72
2023-12-17T06:46:24.519Z,102003.78
2023-12-17T06:48:53.063Z,102055.50
2023-12-17T06:51:25.425Z,102058.09
2023-12-17T06:53:54.571Z,102052.94
2023-12-17T06:56:23.808Z,102056.34
2023-12-17T06:58:54.221Z,102012.59
2023-12-17T07:01:22.392Z,102023.75
2023-12-17T07:03:51.414Z,101884.69
2023-12-17T07:06:19.561Z,101816.84
2023-12-17T07:08:50.658Z,101619.84
2023-12-17T07:11:20.296Z,102067.09
2023-12-17T07:13:50.359Z,101817.63
2023-12-17T07:16:27.350Z,101819.41
2023-12-17T07:18:55.496Z,102070.00
2023-12-17T07:21:23.819Z,102025.47
2023-12-17T07:23:53.481Z,102005.69
2023-12-17T07:26:23.285Z,102073.50
2023-12-17T07:28:51.597Z,102005.69
2023-12-17T07:31:20.006Z,102063.22
2023-12-17T07:33:48.422Z,102038.31
2023-12-17T07:36:17.391Z,101895.00
2023-12-17T07:38:46.219Z,102034.00
2023-12-17T07:41:15.828Z,101974.78
2023-12-17T07:43:44.211Z,102068.28
2023-12-17T07:46:12.198Z,102074.28
2023-12-17T07:48:40.654Z,102048.50
2023-12-17T07:51:09.848Z,101992.72
2023-12-17T07:53:37.996Z,101998.78
2023-12-17T07:56:09.505Z,102061.38
2023-12-17T07:58:38.997Z,102053.69
2023-12-17T08:01:07.161Z,102074.34
2023-12-17T08:03:35.760Z,101927.50
2023-12-17T08:06:04.145Z,102068.28
2023-12-17T08:08:33.159Z,102070.00
2023-12-17T08:11:01.655Z,101958.47
2023-12-17T08:13:29.693Z,102063.09
2023-12-17T08:15:59.741Z,102063.03
2023-12-17T08:18:27.893Z,101938.66
2023-12-17T08:20:56.429Z,102063.94
2023-12-17T08:23:24.409Z,101958.38
2023-12-17T08:25:52.942Z,101995.22
2023-12-17T08:28:21.758Z,102068.06
2023-12-17T08:30:50.659Z,101958.13
2023-12-17T08:33:20.328Z,101963.19
2023-12-17T08:35:49.017Z,102039.34
2023-12-17T08:38:17.339Z,101971.56
2023-12-17T08:40:48.430Z,101852.47
2023-12-17T08:43:16.580Z,101772.13
2023-12-17T08:45:44.770Z,102034.19
2023-12-17T08:48:13.361Z,102034.13
2023-12-17T08:50:42.942Z,102016.81
2023-12-17T08:53:10.945Z,102022.00
2023-12-17T08:55:39.418Z,101923.53
2023-12-17T08:58:07.456Z,102009.38
2023-12-17T09:00:36.267Z,102007.66
2023-12-17T09:03:04.873Z,101935.72
2023-12-17T09:05:33.004Z,102004.19
2023-12-17T09:08:02.503Z,101995.41
2023-12-17T09:10:30.837Z,101918.28
2023-12-17T09:12:59.043Z,101479.16
2023-12-17T09:15:27.307Z,101985.34
2023-12-17T09:17:55.730Z,101989.69
2023-12-17T09:20:24.696Z,101997.47
2023-12-17T09:22:53.277Z,101984.66
2023-12-17T09:25:23.023Z,101982.91
2023-12-17T09:27:52.936Z,101979.13
2023-12-17T09:30:21.077Z,101980.97
2023-12-17T09:32:49.848Z,101973.94
2023-12-17T09:35:20.960Z,101924.38
2023-12-17T09:37:49.106Z,101966.34
2023-12-17T09:40:18.342Z,101868.34
2023-12-17T09:42:53.820Z,101955.19
2023-12-17T09:45:22.800Z,101956.81
2023-12-17T09:47:51.023Z,101939.94
2023-12-17T09:50:19.351Z,101950.84
2023-12-17T09:52:47.700Z,101899.56
2023-12-17T09:55:17.652Z,101951.72
2023-12-17T09:57:47.145Z,101942.16
2023-12-17T10:00:16.323Z,101959.19
2023-12-17T10:02:44.722Z,101959.88
2023-12-17T10:05:12.774Z,101925.00
2023-12-17T10:07:41.443Z,101908.63
2023-12-17T10:10:10.604Z,101946.69
2023-12-17T10:12:40.481Z,101906.19
2023-12-17T10:15:13.198Z,101860.59
2023-12-17T10:17:43.452Z,101732.31
2023-12-17T10:20:12.925Z,101953.31
2023-12-17T10:22:48.611Z,101938.50
2023-12-17T10:25:27.618Z,101759.28
2023-12-17T10:28:00.186Z,101942.41
2023-12-17T10:30:32.745Z,101937.44
2023-12-17T10:33:03.250Z,101933.84
2023-12-17T10:35:36.922Z,101761.47
2023-12-17T10:38:08.178Z,101933.88
2023-12-17T10:40:41.047Z,101917.72
2023-12-17T10:43:10.643Z,101827.94
2023-12-17T10:45:41.742Z,101914.84
2023-12-17T10:48:13.588Z,101938.00
2023-12-17T10:50:44.176Z,101871.34
2023-12-17T10:53:13.858Z,101673.03
2023-12-17T10:55:42.096Z,101844.75
2023-12-17T10:58:15.795Z,101873.22
2023-12-17T11:00:47.183Z,101899.44
2023-12-17T11:03:16.493Z,101834.19
2023-12-17T11:05:56.690Z,101888.41
2023-12-17T11:08:26.965Z,101787.81
2023-12-17T11:10:56.000Z,101785.44
2023-12-17T11:13:24.929Z,101874.00
2023-12-17T11:15:56.415Z,101868.94
2023-12-17T11:18:25.244Z,101876.56
2023-12-17T11:20:55.469Z,101866.34
2023-12-17T11:23:24.054Z,101763.16
2023-12-17T11:25:56.326Z,101855.97
2023-12-17T11:28:27.520Z,101749.00
2023-12-17T11:30:58.378Z,101756.09
2023-12-17T11:33:27.012Z,101702.47
2023-12-17T11:35:56.375Z,101728.91
2023-12-17T11:38:24.947Z,101838.13
2023-12-17T11:40:53.304Z,101797.84
2023-12-17T11:43:24.641Z,101823.13
2023-12-17T11:45:53.595Z,101782.38
2023-12-17T11:48:23.872Z,101823.25
2023-12-17T11:50:53.893Z,101820.72
2023-12-17T11:53:23.380Z,101807.41
2023-12-17T11:55:54.416Z,101807.94
2023-12-17T11:58:24.149Z,101583.50
2023-12-17T12:01:06.161Z,101623.31
2023-12-17T12:03:36.651Z,101559.94
2023-12-17T12:06:10.500Z,101447.84
2023-12-17T12:08:44.387Z,101405.53
2023-12-17T12:11:14.272Z,101800.22
2023-12-17T12:13:44.982Z,101760.22
2023-12-17T12:16:27.380Z,101568.94
2023-12-17T12:19:08.615Z,101791.78
2023-12-17T12:21:39.545Z,101506.34
2023-12-17T12:24:11.840Z,101801.63
2023-12-17T12:27:20.035Z,101557.25
2023-12-17T12:29:49.409Z,101758.72
2023-12-17T12:32:28.936Z,101373.06
2023-12-17T12:34:58.443Z,101794.28
2023-12-17T12:37:36.531Z,101797.47
2023-12-17T12:40:09.822Z,101801.53
2023-12-17T12:42:40.206Z,101711.56
2023-12-17T12:45:11.994Z,101777.97
2023-12-17T12:47:41.046Z,101762.91
2023-12-17T12:50:11.646Z,101800.34
2023-12-17T12:52:40.238Z,101799.25
2023-12-17T12:55:08.584Z,101698.03
2023-12-17T12:57:37.128Z,101789.34
2023-12-17T13:00:06.118Z,101782.84
2023-12-17T13:02:34.290Z,101759.72
2023-12-17T13:05:02.290Z,101774.25
2023-12-17T13:07:33.405Z,101780.41
2023-12-17T13:10:08.233Z,101776.03
2023-12-17T13:12:40.052Z,101771.44
2023-12-17T13:15:10.048Z,101764.44
2023-12-17T13:17:38.215Z,101773.16
2023-12-17T13:20:09.881Z,101631.94
2023-12-17T13:22:39.574Z,101769.22
2023-12-17T13:25:09.632Z,101753.81
2023-12-17T13:27:37.914Z,101717.00
2023-12-17T13:30:07.536Z,101399.06
2023-12-17T13:32:35.721Z,101757.53
2023-12-17T13:35:03.827Z,101764.06
2023-12-17T13:37:32.105Z,101753.56
2023-12-17T13:40:01.485Z,101742.59
2023-12-17T13:42:29.774Z,101753.44
2023-12-17T13:44:57.887Z,101757.53
2023-12-17T13:47:25.977Z,101750.09
2023-12-17T13:49:55.358Z,101748.47
2023-12-17T13:52:23.911Z,101720.31
2023-12-17T13:54:52.221Z,101692.91
2023-12-17T13:57:21.699Z,101741.34
2023-12-17T13:59:50.209Z,101736.16
2023-12-17T14:02:19.183Z,101735.06
2023-12-17T14:04:47.264Z,101733.28
2023-12-17T14:07:15.390Z,101651.00
2023-12-17T14:09:46.072Z,101733.97
2023-12-17T14:12:14.475Z,101737.44
2023-12-17T14:14:45.415Z,101688.84
2023-12-17T14:17:13.817Z,101724.56
2023-12-17T14:19:41.774Z,101745.19
2023-12-17T14:22:10.070Z,101740.13
2023-12-17T14:24:38.353Z,101745.47
2023-12-17T14:27:06.911Z,101740.53
2023-12-17T14:29:35.068Z,101743.22
2023-12-17T14:32:04.924Z,101693.06
2023-12-17T14:34:37.688Z,101589.91
2023-12-17T14:37:06.106Z,101720.25
2023-12-17T14:39:35.100Z,101713.63
2023-12-17T14:42:03.801Z,101748.81
2023-12-17T14:44:31.777Z,101757.66
2023-12-17T14:47:00.735Z,101756.94
2023-12-17T14:49:30.557Z,101769.22
2023-12-17T14:51:58.688Z,101768.47
2023-12-17T14:54:26.907Z,101760.72
2023-12-17T14:56:55.192Z,101760.06
2023-12-17T14:59:23.594Z,101755.94
2023-12-17T15:01:55.775Z,101756.81
2023-12-17T15:04:28.474Z,101746.81
2023-12-17T15:06:58.231Z,101750.94
2023-12-17T15:09:28.210Z,101760.41
2023-12-17T15:11:56.675Z,101751.94
2023-12-17T15:14:25.569Z,101751.13
2023-12-17T15:16:53.670Z,101757.28
2023-12-17T15:19:22.498Z,101764.38
2023-12-17T15:21:51.493Z,101757.38
2023-12-17T15:24:20.874Z,101748.69
2023-12-17T15:26:48.982Z,101697.63
2023-12-17T15:29:17.130Z,101743.06
2023-12-17T15:31:45.356Z,101743.06
2023-12-17T15:34:14.534Z,101478.38
2023-12-17T15:36:43.935Z,101739.69
2023-12-17T15:39:13.076Z,101738.13
2023-12-17T15:41:42.657Z,101715.09
2023-12-17T15:44:11.248Z,101738.22
2023-12-17T15:46:40.593Z,101739.34
2023-12-17T15:49:08.923Z,101741.06
2023-12-17T15:51:38.855Z,101695.81
2023-12-17T15:54:07.677Z,101621.50
2023-12-17T15:56:35.841Z,101748.09
2023-12-17T15:59:05.549Z,101622.47
2023-12-17T16:01:33.502Z,101494.28
2023-12-17T16:04:01.643Z,101743.81
2023-12-17T16:06:29.945Z,101340.84
2023-12-17T16:08:58.135Z,101745.09
2023-12-17T16:11:26.356Z,101689.56
2023-12-17T16:13:54.577Z,101695.59
2023-12-17T16:16:25.492Z,101618.53
2023-12-17T16:18:53.879Z,101742.50
2023-12-17T16:21:22.485Z,101730.38
2023-12-17T16:23:50.616Z,101736.47
2023-12-17T16:26:18.748Z,101739.06
2023-12-17T16:28:47.756Z,101742.69
2023-12-17T16:31:16.656Z,101712.81
2023-12-17T16:33:47.610Z,101645.34
2023-12-17T16:36:16.820Z,101423.28
2023-12-17T16:38:45.359Z,101670.22
2023-12-17T16:41:13.665Z,101402.75
2023-12-17T16:43:42.802Z,101728.41
2023-12-17T16:46:13.412Z,101756.75
2023-12-17T16:48:41.577Z,101761.97
2023-12-17T16:51:27.226Z,101638.78
2023-12-17T16:53:55.512Z,101756.78
2023-12-17T16:56:24.090Z,101760.09
2023-12-17T16:58:53.426Z,101758.28
2023-12-17T17:01:21.748Z,101625.75
2023-12-17T17:03:49.901Z,101762.66
2023-12-17T17:06:17.986Z,101762.59
2023-12-17T17:08:47.526Z,101588.19
2023-12-17T17:11:16.254Z,101692.50
2023-12-17T17:13:44.368Z,101609.59
2023-12-17T17:16:12.785Z,101493.38
2023-12-17T17:18:41.156Z,101770.44
2023-12-17T17:21:11.146Z,101680.63
2023-12-17T17:23:39.492Z,101669.69
2023-12-17T17:26:09.055Z,101777.34
2023-12-17T17:28:39.641Z,101753.34
2023-12-17T17:31:08.683Z,101774.81
2023-12-17T17:33:37.138Z,101667.81
2023-12-17T17:36:08.249Z,101727.94
2023-12-17T17:38:39.228Z,101663.72
2023-12-17T17:41:09.165Z,101768.16
2023-12-17T17:43:37.248Z,101734.03
2023-12-17T17:46:05.634Z,101710.06
2023-12-17T17:48:33.938Z,101756.28
2023-12-17T17:51:05.215Z,101586.03
2023-12-17T17:53:35.187Z,101745.09
2023-12-17T17:56:05.975Z,101750.16
2023-12-17T17:58:35.374Z,101753.69
2023-12-17T18:01:03.456Z,101748.59
2023-12-17T18:03:31.744Z,101746.78
2023-12-17T18:05:59.840Z,101744.19
2023-12-17T18:08:27.902Z,101712.53
2023-12-17T18:10:56.101Z,101698.88
2023-12-17T18:13:26.421Z,101639.91
2023-12-17T18:15:57.305Z,101737.44
2023-12-17T18:18:25.475Z,101713.41
2023-12-17T18:20:53.682Z,101745.19
2023-12-17T18:23:21.756Z,101730.56
2023-12-17T18:25:50.186Z,101663.03
2023-12-17T18:28:18.202Z,101709.28
2023-12-17T18:30:48.892Z,101737.53
2023-12-17T18:33:18.609Z,101729.75
2023-12-17T18:35:46.628Z,101679.25
2023-12-17T18:38:14.940Z,101671.53
2023-12-17T18:40:42.930Z,101615.13
2023-12-17T18:43:11.173Z,101724.56
2023-12-17T18:45:40.786Z,101578.31
2023-12-17T18:48:09.614Z,101694.63
2023-12-17T18:50:40.619Z,101718.47
2023-12-17T18:53:08.617Z,101645.78
2023-12-17T18:55:36.575Z,101715.13
2023-12-17T18:58:04.785Z,101714.25
2023-12-17T19:00:34.035Z,101720.25
2023-12-17T19:03:02.110Z,101713.41
2023-12-17T19:05:30.190Z,101622.72
2023-12-17T19:07:59.910Z,101709.13
2023-12-17T19:10:27.845Z,101698.84
2023-12-17T19:12:55.858Z,101697.22
2023-12-17T19:15:24.108Z,101656.13
2023-12-17T19:17:53.444Z,101655.34
2023-12-17T19:20:22.229Z,101645.97
2023-12-17T19:22:50.235Z,101686.19
2023-12-17T19:25:19.782Z,101685.25
2023-12-17T19:27:47.762Z,101625.41
2023-12-17T19:30:17.116Z,101638.19
2023-12-17T19:32:45.509Z,101673.38
2023-12-17T19:35:13.703Z,101669.88
2023-12-17T19:37:42.360Z,101676.81
2023-12-17T19:40:13.329Z,101539.03
2023-12-17T19:42:43.434Z,101604.00
2023-12-17T19:45:12.164Z,101638.28
2023-12-17T19:47:40.291Z,101661.41
2023-12-17T19:50:09.237Z,101660.50
2023-12-17T19:52:37.169Z,101657.97
2023-12-17T19:55:05.788Z,101657.13
2023-12-17T19:57:34.146Z,101564.81
2023-12-17T20:00:03.744Z,101678.63
2023-12-17T20:02:31.713Z,101663.28
2023-12-17T20:05:00.155Z,101685.59
2023-12-17T20:07:28.356Z,101631.66
2023-12-17T20:09:56.563Z,101689.03
2023-12-17T20:12:24.782Z,101659.09
2023-12-17T20:14:52.718Z,101696.78
2023-12-17T20:17:22.164Z,101702.78
2023-12-17T20:19:50.310Z,101694.16
2023-12-17T20:22:19.738Z,101667.63
2023-12-17T20:24:47.717Z,101688.13
2023-12-17T20:27:15.766Z,101678.66
2023-12-17T20:29:44.507Z,101676.09
2023-12-17T20:32:13.150Z,101653.84
2023-12-17T20:34:42.768Z,101681.31
2023-12-17T20:37:10.936Z,101645.38
2023-12-17T20:39:39.522Z,101675.34
2023-12-17T20:42:08.646Z,101682.16
2023-12-17T20:44:37.475Z,101546.06
2023-12-17T20:47:06.029Z,101680.31
2023-12-17T20:49:34.885Z,101670.88
2023-12-17T20:52:05.642Z,101416.91
2023-12-17T20:54:34.327Z,101161.50
2023-12-17T20:57:02.693Z,101463.06
2023-12-17T20:59:30.710Z,101674.38
2023-12-17T21:01:58.778Z,101555.41
2023-12-17T21:04:26.843Z,101659.72
2023-12-17T21:06:55.049Z,101502.31
2023-12-17T21:09:25.399Z,101540.78
2023-12-17T21:11:53.429Z,101628.88
2023-12-17T21:14:21.577Z,101555.38
2023-12-17T21:16:49.755Z,101653.72
2023-12-17T21:19:19.702Z,101641.69
2023-12-17T21:21:47.992Z,101627.13
2023-12-17T21:24:17.196Z,101596.31
2023-12-17T21:26:47.093Z,101621.94
2023-12-17T21:29:15.555Z,101508.19
2023-12-17T21:31:43.985Z,101173.34
2023-12-17T21:34:21.095Z,101621.91
2023-12-17T21:36:49.884Z,101621.03
2023-12-17T21:39:18.044Z,101615.81
2023-12-17T21:41:48.188Z,101612.47
2023-12-17T21:44:16.673Z,101617.59
2023-12-17T21:46:44.985Z,101561.09
2023-12-17T21:49:15.424Z,101609.84
2023-12-17T21:51:44.102Z,101613.34
2023-12-17T21:54:12.246Z,101621.97
2023-12-17T21:56:41.361Z,101619.38
2023-12-17T21:59:10.810Z,101614.25
2023-12-17T22:01:38.953Z,101509.09
2023-12-17T22:04:10.385Z,101604.00
2023-12-17T22:06:40.407Z,101597.91
2023-12-17T22:09:08.485Z,101574.03
2023-12-17T22:11:42.650Z,101570.50
2023-12-17T22:14:12.064Z,101581.66
2023-12-17T22:16:40.651Z,101441.56
2023-12-17T22:19:08.900Z,101523.59
2023-12-17T22:21:37.879Z,101563.59
2023-12-17T22:24:06.666Z,101566.16
2023-12-17T22:26:34.951Z,101508.94
2023-12-17T22:29:02.892Z,101552.59
2023-12-17T22:31:32.292Z,101532.09
2023-12-17T22:34:00.512Z,101522.72
2023-12-17T22:36:28.584Z,101523.63
2023-12-17T22:38:56.768Z,101573.16
2023-12-17T22:41:24.995Z,101524.41
2023-12-17T22:43:53.060Z,101561.13
2023-12-17T22:46:21.140Z,101515.88
2023-12-17T22:48:50.975Z,101097.44
2023-12-17T22:51:19.254Z,101566.34
2023-12-17T22:53:47.296Z,101517.63
2023-12-17T22:56:15.516Z,101517.63
2023-12-17T22:58:43.639Z,101513.31
2023-12-17T23:01:18.978Z,101518.44
2023-12-17T23:03:48.623Z,101561.13
2023-12-17T23:06:19.314Z,101532.03
2023-12-17T23:08:47.294Z,101452.59
2023-12-17T23:11:15.690Z,101562.00
2023-12-17T23:13:43.823Z,101511.56
2023-12-17T23:16:11.766Z,101557.66
2023-12-17T23:18:39.996Z,101561.16
2023-12-17T23:21:08.149Z,101560.38
2023-12-17T23:23:37.495Z,101560.31
2023-12-17T23:26:07.484Z,101563.69
2023-12-17T23:28:35.488Z,101420.97
2023-12-17T23:31:03.633Z,101550.75
2023-12-17T23:33:33.701Z,101556.72
2023-12-17T23:36:01.996Z,101491.84
2023-12-17T23:38:30.002Z,101475.56
2023-12-17T23:40:59.620Z,101221.94
2023-12-17T23:43:27.717Z,101502.94
2023-12-17T23:45:56.092Z,101553.31
2023-12-17T23:48:24.262Z,101514.00
2023-12-17T23:50:52.319Z,101527.69
2023-12-17T23:53:20.313Z,101550.72
2023-12-17T23:55:48.376Z,101556.78
2023-12-17T23:58:17.768Z,101502.84
